createdAt,value
2018-09-30T00:00:08.001Z,0
2018-09-30T00:01:17.612Z,0
2018-09-30T00:02:27.768Z,0
2018-09-30T00:03:37.658Z,0
2018-09-30T00:04:47.544Z,0
2018-09-30T00:05:57.473Z,0
2018-09-30T00:07:07.364Z,0
2018-09-30T00:08:17.255Z,0
2018-09-30T00:09:27.450Z,0
2018-09-30T00:10:37.062Z,0
2018-09-30T00:11:46.960Z,0
2018-09-30T00:12:56.575Z,0
2018-09-30T00:14:06.461Z,0
2018-09-30T00:15:15.798Z,0
2018-09-30T00:16:25.687Z,0
2018-09-30T00:17:35.611Z,0
2018-09-30T00:18:45.500Z,0
2018-09-30T00:19:55.421Z,0
2018-09-30T00:21:05.030Z,0
2018-09-30T00:22:15.186Z,0
2018-09-30T00:23:24.560Z,0
2018-09-30T00:24:34.743Z,0
2018-09-30T00:25:44.634Z,0
2018-09-30T00:26:54.807Z,0
2018-09-30T00:28:04.423Z,0
2018-09-30T00:29:14.584Z,0
2018-09-30T00:30:23.971Z,0
2018-09-30T00:31:33.595Z,0
2018-09-30T00:32:43.487Z,0
2018-09-30T00:33:53.648Z,0
2018-09-30T00:35:03.473Z,0
2018-09-30T00:36:13.498Z,0
2018-09-30T00:37:23.537Z,0
2018-09-30T00:38:33.746Z,0
2018-09-30T00:39:43.908Z,0
2018-09-30T00:40:53.519Z,0
2018-09-30T00:42:03.683Z,0
2018-09-30T00:43:13.576Z,0
2018-09-30T00:44:23.471Z,0
2018-09-30T00:45:33.093Z,0
2018-09-30T00:46:42.998Z,0
2018-09-30T00:47:52.936Z,0
2018-09-30T00:49:02.280Z,0
2018-09-30T00:50:11.891Z,0
2018-09-30T00:51:21.784Z,0
2018-09-30T00:52:31.134Z,0
2018-09-30T00:53:41.026Z,0
2018-09-30T00:54:50.922Z,0
2018-09-30T00:55:59.994Z,0
2018-09-30T00:57:09.607Z,0
2018-09-30T00:58:19.769Z,0
2018-09-30T00:59:29.664Z,0
2018-09-30T01:00:39.837Z,0
2018-09-30T01:01:49.729Z,0
2018-09-30T01:02:59.616Z,0
2018-09-30T01:04:09.779Z,0
2018-09-30T01:05:19.397Z,0
2018-09-30T01:06:29.304Z,0
2018-09-30T01:07:39.461Z,0
2018-09-30T01:08:49.622Z,0
2018-09-30T01:09:58.967Z,0
2018-09-30T01:11:08.312Z,0
2018-09-30T01:12:18.198Z,0
2018-09-30T01:13:28.081Z,0
2018-09-30T01:14:37.975Z,0
2018-09-30T01:15:47.956Z,0
2018-09-30T01:16:57.885Z,0
2018-09-30T01:18:07.774Z,0
2018-09-30T01:19:17.937Z,0
2018-09-30T01:20:27.307Z,0
2018-09-30T01:21:36.926Z,0
2018-09-30T01:22:47.084Z,0
2018-09-30T01:23:56.972Z,0
2018-09-30T01:25:06.869Z,0
2018-09-30T01:26:17.070Z,0
2018-09-30T01:27:26.715Z,0
2018-09-30T01:28:36.331Z,0
2018-09-30T01:29:45.938Z,0
2018-09-30T01:30:55.824Z,0
2018-09-30T01:32:05.474Z,0
2018-09-30T01:33:15.628Z,0
2018-09-30T01:34:25.243Z,0
2018-09-30T01:35:34.584Z,0
2018-09-30T01:36:44.480Z,0
2018-09-30T01:37:54.368Z,0
2018-09-30T01:39:04.016Z,0
2018-09-30T01:40:14.207Z,0
2018-09-30T01:41:23.856Z,0
2018-09-30T01:42:33.748Z,0
2018-09-30T01:43:43.366Z,0
2018-09-30T01:44:53.531Z,0
2018-09-30T01:46:03.212Z,0
2018-09-30T01:47:12.861Z,0
2018-09-30T01:48:23.037Z,0
2018-09-30T01:49:33.235Z,0
2018-09-30T01:50:43.174Z,0
2018-09-30T01:51:52.510Z,0
2018-09-30T01:53:02.166Z,0
2018-09-30T01:54:12.048Z,0
2018-09-30T01:55:21.934Z,0
2018-09-30T01:56:31.822Z,0
2018-09-30T01:57:41.718Z,0
2018-09-30T01:58:51.615Z,0
2018-09-30T02:00:01.236Z,0
2018-09-30T02:01:11.126Z,0
2018-09-30T02:02:20.467Z,0
2018-09-30T02:03:30.081Z,0
2018-09-30T02:04:40.247Z,0
2018-09-30T02:05:50.408Z,0
2018-09-30T02:07:00.030Z,0
2018-09-30T02:08:09.692Z,0
2018-09-30T02:09:19.306Z,0
2018-09-30T02:10:29.466Z,0
2018-09-30T02:11:39.352Z,0
2018-09-30T02:12:48.962Z,0
2018-09-30T02:13:58.890Z,0
2018-09-30T02:15:08.503Z,0
2018-09-30T02:16:18.109Z,0
2018-09-30T02:17:27.998Z,0
2018-09-30T02:18:37.640Z,0
2018-09-30T02:19:47.581Z,0
2018-09-30T02:20:57.197Z,0
2018-09-30T02:22:07.083Z,0
2018-09-30T02:23:16.974Z,0
2018-09-30T02:24:26.594Z,0
2018-09-30T02:25:36.208Z,0
2018-09-30T02:26:45.549Z,0
2018-09-30T02:27:55.713Z,0
2018-09-30T02:29:05.601Z,0
2018-09-30T02:30:14.944Z,0
2018-09-30T02:31:25.156Z,0
2018-09-30T02:32:35.045Z,0
2018-09-30T02:33:44.669Z,0
2018-09-30T02:34:54.015Z,0
2018-09-30T02:36:03.648Z,0
2018-09-30T02:37:13.537Z,0
2018-09-30T02:38:22.877Z,0
2018-09-30T02:39:32.773Z,0
2018-09-30T02:40:42.672Z,0
2018-09-30T02:41:52.571Z,0
2018-09-30T02:43:02.457Z,0
2018-09-30T02:44:12.394Z,0
2018-09-30T02:45:22.558Z,0
2018-09-30T02:46:32.722Z,0
2018-09-30T02:47:42.066Z,0
2018-09-30T02:48:52.230Z,0
2018-09-30T02:50:01.898Z,0
2018-09-30T02:51:12.071Z,0
2018-09-30T02:52:21.419Z,0
2018-09-30T02:53:31.309Z,0
2018-09-30T02:54:41.193Z,0
2018-09-30T02:55:50.805Z,0
2018-09-30T02:57:00.425Z,0
2018-09-30T02:58:10.317Z,0
2018-09-30T02:59:19.664Z,0
2018-09-30T03:00:29.329Z,0
2018-09-30T03:01:38.976Z,0
2018-09-30T03:02:48.906Z,0
2018-09-30T03:03:58.799Z,0
2018-09-30T03:05:08.691Z,0
2018-09-30T03:06:18.590Z,0
2018-09-30T03:07:28.215Z,0
2018-09-30T03:08:37.557Z,0
2018-09-30T03:09:47.732Z,0
2018-09-30T03:10:57.343Z,0
2018-09-30T03:12:06.952Z,0
2018-09-30T03:13:16.890Z,0
2018-09-30T03:14:26.508Z,0
2018-09-30T03:15:36.127Z,0
2018-09-30T03:16:46.333Z,0
2018-09-30T03:17:56.230Z,0
2018-09-30T03:19:05.851Z,0
2018-09-30T03:20:15.467Z,0
2018-09-30T03:21:25.629Z,0
2018-09-30T03:22:35.514Z,0
2018-09-30T03:23:45.408Z,0
2018-09-30T03:24:55.300Z,0
2018-09-30T03:26:05.183Z,0
2018-09-30T03:27:15.084Z,0
2018-09-30T03:28:24.966Z,0
2018-09-30T03:29:35.166Z,0
2018-09-30T03:30:45.115Z,0
2018-09-30T03:31:55.075Z,0
2018-09-30T03:33:04.972Z,0
2018-09-30T03:34:15.164Z,0
2018-09-30T03:35:24.505Z,0
2018-09-30T03:36:34.117Z,0
2018-09-30T03:37:44.281Z,0
2018-09-30T03:38:54.180Z,0
2018-09-30T03:40:03.526Z,0
2018-09-30T03:41:13.450Z,0
2018-09-30T03:42:23.072Z,0
2018-09-30T03:43:33.249Z,0
2018-09-30T03:44:42.861Z,0
2018-09-30T03:45:52.751Z,0
2018-09-30T03:47:02.923Z,0
2018-09-30T03:48:12.888Z,0
2018-09-30T03:49:23.050Z,0
2018-09-30T03:50:32.422Z,0
2018-09-30T03:51:42.339Z,0
2018-09-30T03:52:52.560Z,0
2018-09-30T03:54:02.231Z,0
2018-09-30T03:55:11.580Z,0
2018-09-30T03:56:21.771Z,0
2018-09-30T03:57:31.667Z,0
2018-09-30T03:58:41.617Z,0
2018-09-30T03:59:51.499Z,0
2018-09-30T04:01:01.690Z,0
2018-09-30T04:02:11.337Z,0
2018-09-30T04:03:20.694Z,0
2018-09-30T04:04:30.603Z,0
2018-09-30T04:05:39.938Z,0
2018-09-30T04:06:49.555Z,0
2018-09-30T04:07:58.898Z,0
2018-09-30T04:09:08.243Z,0
2018-09-30T04:10:18.071Z,0
2018-09-30T04:11:28.267Z,0
2018-09-30T04:12:38.162Z,0
2018-09-30T04:13:47.780Z,0
2018-09-30T04:14:57.694Z,0
2018-09-30T04:16:07.590Z,0
2018-09-30T04:17:17.837Z,0
2018-09-30T04:18:27.439Z,0
2018-09-30T04:19:37.648Z,0
2018-09-30T04:20:47.542Z,0
2018-09-30T04:21:57.752Z,0
2018-09-30T04:23:07.644Z,0
2018-09-30T04:24:17.819Z,0
2018-09-30T04:25:27.440Z,0
2018-09-30T04:26:37.061Z,0
2018-09-30T04:27:47.227Z,0
2018-09-30T04:28:56.567Z,0
2018-09-30T04:30:05.906Z,0
2018-09-30T04:31:15.529Z,0
2018-09-30T04:32:25.136Z,0
2018-09-30T04:33:34.759Z,0
2018-09-30T04:34:44.652Z,0
2018-09-30T04:35:54.271Z,0
2018-09-30T04:37:04.153Z,0
2018-09-30T04:38:13.768Z,0
2018-09-30T04:39:23.671Z,0
2018-09-30T04:40:33.839Z,0
2018-09-30T04:41:43.730Z,0
2018-09-30T04:42:53.355Z,0
2018-09-30T04:44:03.244Z,0
2018-09-30T04:45:12.869Z,0
2018-09-30T04:46:22.756Z,0
2018-09-30T04:47:32.638Z,0
2018-09-30T04:48:42.252Z,0
2018-09-30T04:49:52.251Z,0
2018-09-30T04:51:02.231Z,0
2018-09-30T04:52:11.294Z,0
2018-09-30T04:53:21.486Z,4
2018-09-30T04:54:31.112Z,0
2018-09-30T04:55:40.733Z,0
2018-09-30T04:56:50.648Z,4
2018-09-30T04:57:59.987Z,0
2018-09-30T04:59:09.329Z,4
2018-09-30T05:00:19.219Z,4
2018-09-30T05:01:29.205Z,8
2018-09-30T05:02:39.367Z,4
2018-09-30T05:03:48.981Z,8
2018-09-30T05:04:58.321Z,12
2018-09-30T05:06:08.212Z,12
2018-09-30T05:07:18.375Z,16
2018-09-30T05:08:27.990Z,16
2018-09-30T05:09:37.611Z,20
2018-09-30T05:10:47.526Z,24
2018-09-30T05:11:57.132Z,28
2018-09-30T05:13:07.298Z,32
2018-09-30T05:14:17.235Z,44
2018-09-30T05:15:27.117Z,48
2018-09-30T05:16:37.308Z,56
2018-09-30T05:17:47.224Z,68
2018-09-30T05:18:56.835Z,76
2018-09-30T05:20:07.039Z,88
2018-09-30T05:21:16.651Z,100
2018-09-30T05:22:26.824Z,120
2018-09-30T05:23:36.440Z,136
2018-09-30T05:24:46.409Z,156
2018-09-30T05:25:56.150Z,176
2018-09-30T05:27:06.069Z,200
2018-09-30T05:28:15.412Z,228
2018-09-30T05:29:25.293Z,252
2018-09-30T05:30:34.912Z,284
2018-09-30T05:31:44.530Z,320
2018-09-30T05:32:54.692Z,364
2018-09-30T05:34:04.338Z,408
2018-09-30T05:35:13.678Z,444
2018-09-30T05:36:23.561Z,484
2018-09-30T05:37:33.388Z,524
2018-09-30T05:38:43.594Z,560
2018-09-30T05:39:53.752Z,604
2018-09-30T05:41:03.376Z,644
2018-09-30T05:42:13.262Z,692
2018-09-30T05:43:23.156Z,740
2018-09-30T05:44:32.774Z,788
2018-09-30T05:45:42.942Z,844
2018-09-30T05:46:52.280Z,896
2018-09-30T05:48:02.301Z,948
2018-09-30T05:49:12.761Z,996
2018-09-30T05:50:22.641Z,1032
2018-09-30T05:51:32.527Z,1072
2018-09-30T05:52:42.415Z,1108
2018-09-30T05:53:52.343Z,1140
2018-09-30T05:55:01.957Z,1164
2018-09-30T05:56:11.583Z,1176
2018-09-30T05:57:21.200Z,1196
2018-09-30T05:58:30.837Z,1208
2018-09-30T05:59:40.989Z,1208
2018-09-30T06:00:51.153Z,1212
2018-09-30T06:02:01.047Z,1204
2018-09-30T06:03:11.212Z,1188
2018-09-30T06:04:21.127Z,1160
2018-09-30T06:05:31.291Z,1136
2018-09-30T06:06:41.180Z,1120
2018-09-30T06:07:51.062Z,1116
2018-09-30T06:09:01.392Z,1120
2018-09-30T06:10:11.288Z,1120
2018-09-30T06:11:21.450Z,1132
2018-09-30T06:12:31.610Z,1144
2018-09-30T06:13:41.548Z,1156
2018-09-30T06:14:51.863Z,1168
2018-09-30T06:16:02.110Z,1176
2018-09-30T06:17:11.947Z,1176
2018-09-30T06:18:21.919Z,1160
2018-09-30T06:19:31.859Z,1148
2018-09-30T06:20:41.790Z,1120
2018-09-30T06:21:51.949Z,1128
2018-09-30T06:23:01.834Z,1140
2018-09-30T06:24:11.747Z,1156
2018-09-30T06:25:21.947Z,1180
2018-09-30T06:26:32.114Z,1216
2018-09-30T06:27:41.447Z,1244
2018-09-30T06:28:51.060Z,1260
2018-09-30T06:30:01.273Z,1288
2018-09-30T06:31:11.163Z,1328
2018-09-30T06:32:21.518Z,1380
2018-09-30T06:33:31.695Z,1460
2018-09-30T06:34:41.863Z,1540
2018-09-30T06:35:52.105Z,1640
2018-09-30T06:37:01.730Z,1664
2018-09-30T06:38:11.983Z,1672
2018-09-30T06:39:21.319Z,1680
2018-09-30T06:40:31.861Z,1716
2018-09-30T06:41:41.893Z,1728
2018-09-30T06:42:51.788Z,1736
2018-09-30T06:44:01.400Z,1744
2018-09-30T06:45:12.016Z,1752
2018-09-30T06:46:21.777Z,1764
2018-09-30T06:47:31.728Z,1768
2018-09-30T06:48:41.620Z,1780
2018-09-30T06:49:50.956Z,1788
2018-09-30T06:51:00.987Z,1796
2018-09-30T06:52:11.332Z,1804
2018-09-30T06:53:21.223Z,1812
2018-09-30T06:54:31.111Z,1820
2018-09-30T06:55:40.728Z,1828
2018-09-30T06:56:50.075Z,1832
2018-09-30T06:57:59.992Z,1844
2018-09-30T06:59:09.390Z,1852
2018-09-30T07:00:19.280Z,1860
2018-09-30T07:01:28.893Z,1864
2018-09-30T07:02:38.511Z,1872
2018-09-30T07:03:48.414Z,1880
2018-09-30T07:04:58.816Z,1888
2018-09-30T07:06:08.970Z,1896
2018-09-30T07:07:18.583Z,1900
2018-09-30T07:08:28.205Z,1912
2018-09-30T07:09:38.372Z,1916
2018-09-30T07:10:48.784Z,1924
2018-09-30T07:11:58.701Z,1932
2018-09-30T07:13:08.315Z,1936
2018-09-30T07:14:17.936Z,1944
2018-09-30T07:15:28.094Z,1952
2018-09-30T07:16:37.707Z,1956
2018-09-30T07:17:47.104Z,1960
2018-09-30T07:18:57.314Z,1964
2018-09-30T07:20:06.945Z,1972
2018-09-30T07:21:16.285Z,1976
2018-09-30T07:22:26.263Z,1984
2018-09-30T07:23:36.244Z,1988
2018-09-30T07:24:46.128Z,1992
2018-09-30T07:25:55.481Z,2000
2018-09-30T07:27:05.650Z,2008
2018-09-30T07:28:15.816Z,2012
2018-09-30T07:29:25.708Z,2016
2018-09-30T07:30:35.897Z,2020
2018-09-30T07:31:45.785Z,2028
2018-09-30T07:32:55.457Z,2032
2018-09-30T07:34:05.408Z,2036
2018-09-30T07:35:15.036Z,2044
2018-09-30T07:36:24.661Z,2044
2018-09-30T07:37:34.552Z,2048
2018-09-30T07:38:44.757Z,2048
2018-09-30T07:39:54.368Z,2052
2018-09-30T07:41:04.288Z,2056
2018-09-30T07:42:14.175Z,2060
2018-09-30T07:43:24.065Z,2060
2018-09-30T07:44:33.954Z,2064
2018-09-30T07:45:43.840Z,2064
2018-09-30T07:46:54.299Z,2064
2018-09-30T07:48:03.998Z,2064
2018-09-30T07:49:14.196Z,2064
2018-09-30T07:50:23.813Z,2064
2018-09-30T07:51:33.433Z,2072
2018-09-30T07:52:43.555Z,2072
2018-09-30T07:53:53.169Z,2072
2018-09-30T07:55:02.514Z,2076
2018-09-30T07:56:12.138Z,2076
2018-09-30T07:57:22.027Z,2080
2018-09-30T07:58:32.195Z,2080
2018-09-30T07:59:41.809Z,2088
2018-09-30T08:00:51.747Z,2088
2018-09-30T08:02:01.634Z,2088
2018-09-30T08:03:10.425Z,2092
2018-09-30T08:04:20.327Z,2096
2018-09-30T08:05:30.211Z,2092
2018-09-30T08:06:39.944Z,2096
2018-09-30T08:07:49.837Z,2100
2018-09-30T08:08:59.214Z,2104
2018-09-30T08:10:08.840Z,2104
2018-09-30T08:11:18.461Z,2112
2018-09-30T08:12:27.832Z,2108
2018-09-30T08:13:37.740Z,2116
2018-09-30T08:14:47.631Z,2116
2018-09-30T08:15:57.255Z,2116
2018-09-30T08:17:07.024Z,2120
2018-09-30T08:18:17.187Z,2124
2018-09-30T08:19:26.800Z,2136
2018-09-30T08:20:36.687Z,2136
2018-09-30T08:21:46.311Z,2144
2018-09-30T08:22:55.929Z,2148
2018-09-30T08:24:06.439Z,2152
2018-09-30T08:25:16.842Z,2156
2018-09-30T08:26:26.465Z,2160
2018-09-30T08:27:36.350Z,2160
2018-09-30T08:28:46.513Z,2164
2018-09-30T08:29:56.401Z,2164
2018-09-30T08:31:06.018Z,2168
2018-09-30T08:32:16.110Z,2172
2018-09-30T08:33:25.764Z,2172
2018-09-30T08:34:35.660Z,2176
2018-09-30T08:35:45.006Z,2176
2018-09-30T08:36:54.639Z,2176
2018-09-30T08:38:04.261Z,2184
2018-09-30T08:39:14.422Z,2192
2018-09-30T08:40:23.773Z,2196
2018-09-30T08:41:33.666Z,2192
2018-09-30T08:42:43.830Z,2196
2018-09-30T08:43:53.629Z,2200
2018-09-30T08:45:03.474Z,2204
2018-09-30T08:46:13.366Z,2208
2018-09-30T08:47:23.361Z,2212
2018-09-30T08:48:33.802Z,2216
2018-09-30T08:49:43.726Z,2220
2018-09-30T08:50:53.894Z,2228
2018-09-30T08:52:03.544Z,2236
2018-09-30T08:53:13.162Z,2232
2018-09-30T08:54:22.507Z,2240
2018-09-30T08:55:31.863Z,2244
2018-09-30T08:56:41.236Z,2252
2018-09-30T08:57:51.395Z,2260
2018-09-30T08:59:01.358Z,2264
2018-09-30T09:00:11.279Z,2268
2018-09-30T09:01:20.351Z,2268
2018-09-30T09:02:30.241Z,2272
2018-09-30T09:03:40.413Z,2276
2018-09-30T09:04:50.342Z,2280
2018-09-30T09:06:00.505Z,2284
2018-09-30T09:07:10.124Z,2292
2018-09-30T09:08:19.777Z,2300
2018-09-30T09:09:29.956Z,2304
2018-09-30T09:10:40.125Z,2308
2018-09-30T09:11:50.302Z,2312
2018-09-30T09:13:00.750Z,2320
2018-09-30T09:14:10.924Z,2324
2018-09-30T09:15:20.384Z,2324
2018-09-30T09:16:30.357Z,2328
2018-09-30T09:17:39.977Z,2332
2018-09-30T09:18:49.907Z,2336
2018-09-30T09:19:59.266Z,2340
2018-09-30T09:21:09.437Z,2348
2018-09-30T09:22:19.588Z,2356
2018-09-30T09:23:29.548Z,2356
2018-09-30T09:24:39.443Z,2360
2018-09-30T09:25:49.608Z,2360
2018-09-30T09:26:58.953Z,2360
2018-09-30T09:28:09.057Z,2368
2018-09-30T09:29:18.811Z,2364
2018-09-30T09:30:28.713Z,2372
2018-09-30T09:31:39.108Z,2376
2018-09-30T09:32:49.051Z,2388
2018-09-30T09:33:58.986Z,2384
2018-09-30T09:35:09.121Z,2392
2018-09-30T09:36:18.939Z,2408
2018-09-30T09:37:28.836Z,2424
2018-09-30T09:38:39.323Z,2424
2018-09-30T09:39:48.936Z,2444
2018-09-30T09:40:58.556Z,2448
2018-09-30T09:42:08.182Z,2464
2018-09-30T09:43:17.529Z,2476
2018-09-30T09:44:27.697Z,2488
2018-09-30T09:45:37.826Z,2496
2018-09-30T09:46:47.758Z,2508
2018-09-30T09:47:57.384Z,2520
2018-09-30T09:49:07.004Z,2512
2018-09-30T09:50:17.179Z,2520
2018-09-30T09:51:26.796Z,2528
2018-09-30T09:52:36.948Z,2532
2018-09-30T09:53:47.082Z,2544
2018-09-30T09:54:56.973Z,2552
2018-09-30T09:56:07.144Z,2560
2018-09-30T09:57:17.048Z,2564
2018-09-30T09:58:26.944Z,2556
2018-09-30T09:59:36.838Z,2564
2018-09-30T10:00:46.746Z,2564
2018-09-30T10:01:56.359Z,2580
2018-09-30T10:03:05.977Z,2580
2018-09-30T10:04:15.874Z,2600
2018-09-30T10:05:26.045Z,2620
2018-09-30T10:06:35.939Z,2644
2018-09-30T10:07:46.106Z,2644
2018-09-30T10:08:56.273Z,2644
2018-09-30T10:10:06.097Z,2648
2018-09-30T10:11:15.713Z,2640
2018-09-30T10:12:25.637Z,2648
2018-09-30T10:13:35.255Z,2676
2018-09-30T10:14:44.610Z,2684
2018-09-30T10:15:53.683Z,2704
2018-09-30T10:17:03.311Z,2704
2018-09-30T10:18:12.659Z,2716
2018-09-30T10:19:22.293Z,2720
2018-09-30T10:20:31.352Z,2732
2018-09-30T10:21:41.551Z,2736
2018-09-30T10:22:51.514Z,2752
2018-09-30T10:24:01.129Z,2764
2018-09-30T10:25:11.019Z,2780
2018-09-30T10:26:20.643Z,2800
2018-09-30T10:27:30.540Z,2816
2018-09-30T10:28:40.430Z,2828
2018-09-30T10:29:50.051Z,2836
2018-09-30T10:30:59.672Z,2848
2018-09-30T10:32:09.021Z,2868
2018-09-30T10:33:19.189Z,2880
2018-09-30T10:34:28.807Z,2908
2018-09-30T10:35:38.906Z,2932
2018-09-30T10:36:48.801Z,2948
2018-09-30T10:37:58.696Z,2980
2018-09-30T10:39:09.685Z,3000
2018-09-30T10:40:20.306Z,3000
2018-09-30T10:41:30.472Z,2972
2018-09-30T10:42:40.366Z,2864
2018-09-30T10:43:50.539Z,2732
2018-09-30T10:45:00.180Z,2468
2018-09-30T10:46:09.795Z,2500
2018-09-30T10:47:19.686Z,2664
2018-09-30T10:48:29.232Z,2876
2018-09-30T10:49:39.049Z,3156
2018-09-30T10:50:49.215Z,3204
2018-09-30T10:51:59.382Z,3204
2018-09-30T10:53:09.004Z,3272
2018-09-30T10:54:18.360Z,3312
2018-09-30T10:55:28.341Z,3264
2018-09-30T10:56:38.593Z,3300
2018-09-30T10:57:48.525Z,3380
2018-09-30T10:58:57.880Z,3368
2018-09-30T11:00:07.779Z,3288
2018-09-30T11:01:17.949Z,3332
2018-09-30T11:02:27.568Z,3556
2018-09-30T11:03:38.268Z,3664
2018-09-30T11:04:47.929Z,3732
2018-09-30T11:05:57.552Z,3768
2018-09-30T11:07:07.719Z,3816
2018-09-30T11:08:17.895Z,3900
2018-09-30T11:09:27.820Z,3976
2018-09-30T11:10:37.443Z,4032
2018-09-30T11:11:47.340Z,4100
2018-09-30T11:12:57.507Z,4208
2018-09-30T11:14:07.708Z,4384
2018-09-30T11:15:17.687Z,4548
2018-09-30T11:16:27.311Z,4876
2018-09-30T11:17:36.983Z,5452
2018-09-30T11:18:46.328Z,6208
2018-09-30T11:19:56.499Z,6936
2018-09-30T11:21:05.844Z,7424
2018-09-30T11:22:15.753Z,7452
2018-09-30T11:23:25.411Z,7568
2018-09-30T11:24:35.036Z,7644
2018-09-30T11:25:44.931Z,7568
2018-09-30T11:26:54.606Z,7208
2018-09-30T11:28:04.225Z,6672
2018-09-30T11:29:14.123Z,6360
2018-09-30T11:30:24.012Z,6248
2018-09-30T11:31:33.909Z,6040
2018-09-30T11:32:44.081Z,5468
2018-09-30T11:33:54.294Z,4960
2018-09-30T11:35:03.973Z,5068
2018-09-30T11:36:14.143Z,5148
2018-09-30T11:37:24.312Z,5264
2018-09-30T11:38:34.566Z,5472
2018-09-30T11:39:43.911Z,5664
2018-09-30T11:40:53.808Z,6016
2018-09-30T11:42:03.709Z,6432
2018-09-30T11:43:13.636Z,6964
2018-09-30T11:44:23.408Z,7320
2018-09-30T11:45:33.581Z,7532
2018-09-30T11:46:43.208Z,7548
2018-09-30T11:47:53.136Z,7412
2018-09-30T11:49:02.477Z,7364
2018-09-30T11:50:12.424Z,7500
2018-09-30T11:51:22.318Z,7376
2018-09-30T11:52:32.012Z,7520
2018-09-30T11:53:41.945Z,7384
2018-09-30T11:54:51.305Z,7984
2018-09-30T11:56:00.650Z,7548
2018-09-30T11:57:10.293Z,7344
2018-09-30T11:58:20.457Z,7112
2018-09-30T11:59:30.361Z,6836
2018-09-30T12:00:40.259Z,6448
2018-09-30T12:01:49.880Z,6232
2018-09-30T12:02:59.794Z,6224
2018-09-30T12:04:09.688Z,5756
2018-09-30T12:05:19.586Z,5168
2018-09-30T12:06:29.491Z,4904
2018-09-30T12:07:39.157Z,4672
2018-09-30T12:08:49.362Z,4492
2018-09-30T12:09:58.977Z,4260
2018-09-30T12:11:08.874Z,4048
2018-09-30T12:12:18.766Z,4000
2018-09-30T12:13:28.658Z,3900
2018-09-30T12:14:38.555Z,3688
2018-09-30T12:15:48.727Z,3616
2018-09-30T12:16:58.903Z,3740
2018-09-30T12:18:08.802Z,3912
2018-09-30T12:19:18.706Z,4084
2018-09-30T12:20:28.323Z,4084
2018-09-30T12:21:38.223Z,4064
2018-09-30T12:22:47.569Z,4152
2018-09-30T12:23:57.734Z,4128
2018-09-30T12:25:07.706Z,4212
2018-09-30T12:26:17.599Z,4620
2018-09-30T12:27:27.260Z,5136
2018-09-30T12:28:36.883Z,4176
2018-09-30T12:29:46.815Z,4076
2018-09-30T12:30:56.755Z,4016
2018-09-30T12:32:06.388Z,4116
2018-09-30T12:33:16.289Z,4316
2018-09-30T12:34:26.450Z,4532
2018-09-30T12:35:36.075Z,4948
2018-09-30T12:36:46.285Z,5432
2018-09-30T12:37:56.183Z,5972
2018-09-30T12:39:05.807Z,6628
2018-09-30T12:40:15.705Z,7376
2018-09-30T12:41:25.600Z,7704
2018-09-30T12:42:35.812Z,7824
2018-09-30T12:43:45.704Z,8116
2018-09-30T12:44:55.326Z,8416
2018-09-30T12:46:04.956Z,8676
2018-09-30T12:47:14.580Z,8864
2018-09-30T12:48:24.257Z,8776
2018-09-30T12:49:34.155Z,8288
2018-09-30T12:50:44.045Z,7788
2018-09-30T12:51:54.251Z,7304
2018-09-30T12:53:04.156Z,7196
2018-09-30T12:54:14.038Z,7256
2018-09-30T12:55:23.701Z,7532
2018-09-30T12:56:33.902Z,7864
2018-09-30T12:57:43.802Z,8316
2018-09-30T12:58:53.427Z,8776
2018-09-30T13:00:03.331Z,9096
2018-09-30T13:01:12.953Z,9644
2018-09-30T13:02:23.189Z,10220
2018-09-30T13:03:32.813Z,10720
2018-09-30T13:04:42.713Z,11544
2018-09-30T13:05:53.070Z,12472
2018-09-30T13:07:02.778Z,13412
2018-09-30T13:08:12.973Z,14240
2018-09-30T13:09:22.602Z,15220
2018-09-30T13:10:32.500Z,16512
2018-09-30T13:11:42.676Z,17408
2018-09-30T13:12:52.306Z,18400
2018-09-30T13:14:02.439Z,17952
2018-09-30T13:15:11.783Z,17280
2018-09-30T13:16:21.693Z,16832
2018-09-30T13:17:31.594Z,16512
2018-09-30T13:18:41.808Z,16028
2018-09-30T13:19:51.715Z,15708
2018-09-30T13:21:02.230Z,15624
2018-09-30T13:22:12.358Z,15480
2018-09-30T13:23:22.260Z,15244
2018-09-30T13:24:31.925Z,15020
2018-09-30T13:25:41.824Z,14736
2018-09-30T13:26:51.731Z,14548
2018-09-30T13:28:01.657Z,14344
2018-09-30T13:29:11.602Z,14004
2018-09-30T13:30:20.957Z,13608
2018-09-30T13:31:31.131Z,13276
2018-09-30T13:32:40.760Z,13012
2018-09-30T13:33:50.376Z,12720
2018-09-30T13:35:00.285Z,12316
2018-09-30T13:36:09.092Z,11924
2018-09-30T13:37:19.268Z,11632
2018-09-30T13:38:29.168Z,11448
2018-09-30T13:39:38.800Z,11312
2018-09-30T13:40:48.752Z,11140
2018-09-30T13:41:59.316Z,11008
2018-09-30T13:43:08.938Z,10900
2018-09-30T13:44:18.551Z,10788
2018-09-30T13:45:28.714Z,10600
2018-09-30T13:46:38.882Z,10392
2018-09-30T13:47:48.784Z,10192
2018-09-30T13:48:58.402Z,9944
2018-09-30T13:50:08.305Z,9588
2018-09-30T13:51:18.157Z,9268
2018-09-30T13:52:27.991Z,9036
2018-09-30T13:53:38.202Z,8916
2018-09-30T13:54:48.377Z,8928
2018-09-30T13:55:58.279Z,9128
2018-09-30T13:57:08.457Z,9484
2018-09-30T13:58:18.465Z,9844
2018-09-30T13:59:28.156Z,10164
2018-09-30T14:00:38.100Z,10504
2018-09-30T14:01:47.990Z,10744
2018-09-30T14:02:58.159Z,10884
2018-09-30T14:04:08.332Z,10840
2018-09-30T14:05:18.236Z,10776
2018-09-30T14:06:27.863Z,10696
2018-09-30T14:07:38.042Z,10644
2018-09-30T14:08:47.940Z,10624
2018-09-30T14:09:57.845Z,10544
2018-09-30T14:11:08.010Z,10500
2018-09-30T14:12:17.936Z,10392
2018-09-30T14:13:27.567Z,10180
2018-09-30T14:14:37.697Z,9884
2018-09-30T14:15:47.594Z,9680
2018-09-30T14:16:57.499Z,9776
2018-09-30T14:18:06.855Z,9936
2018-09-30T14:19:16.205Z,9952
2018-09-30T14:20:26.097Z,9992
2018-09-30T14:21:35.752Z,10012
2018-09-30T14:22:45.379Z,10000
2018-09-30T14:23:55.275Z,9876
2018-09-30T14:25:04.902Z,9684
2018-09-30T14:26:14.797Z,9552
2018-09-30T14:27:26.020Z,9556
2018-09-30T14:28:35.831Z,9560
2018-09-30T14:29:45.455Z,9468
2018-09-30T14:30:55.627Z,9460
2018-09-30T14:32:05.521Z,9492
2018-09-30T14:33:15.559Z,9516
2018-09-30T14:34:25.702Z,9432
2018-09-30T14:35:35.627Z,9284
2018-09-30T14:36:45.300Z,9140
2018-09-30T14:37:54.684Z,9064
2018-09-30T14:39:04.629Z,9060
2018-09-30T14:40:14.252Z,8884
2018-09-30T14:41:23.879Z,8600
2018-09-30T14:42:33.777Z,8232
2018-09-30T14:43:43.399Z,7996
2018-09-30T14:44:53.017Z,7720
2018-09-30T14:46:02.635Z,7496
2018-09-30T14:47:12.260Z,7344
2018-09-30T14:48:22.931Z,7268
2018-09-30T14:49:32.626Z,7252
2018-09-30T14:50:41.985Z,7184
2018-09-30T14:51:51.612Z,7080
2018-09-30T14:53:01.510Z,6956
2018-09-30T14:54:11.426Z,6820
2018-09-30T14:55:21.167Z,6684
2018-09-30T14:56:31.076Z,6596
2018-09-30T14:57:41.184Z,6580
2018-09-30T14:58:51.115Z,6680
2018-09-30T15:00:01.014Z,6816
2018-09-30T15:01:10.633Z,6880
2018-09-30T15:02:19.975Z,6724
2018-09-30T15:03:29.606Z,6456
2018-09-30T15:04:39.509Z,6248
2018-09-30T15:05:49.131Z,6068
2018-09-30T15:06:59.270Z,5908
2018-09-30T15:08:09.198Z,5776
2018-09-30T15:09:19.101Z,5600
2018-09-30T15:10:29.285Z,5248
2018-09-30T15:11:39.184Z,4796
2018-09-30T15:12:49.362Z,4480
2018-09-30T15:13:59.310Z,4128
2018-09-30T15:15:09.213Z,3868
2018-09-30T15:16:19.116Z,3828
2018-09-30T15:17:29.267Z,4028
2018-09-30T15:18:39.308Z,4016
2018-09-30T15:19:48.934Z,4100
2018-09-30T15:20:58.834Z,4212
2018-09-30T15:22:08.732Z,4168
2018-09-30T15:23:18.397Z,4184
2018-09-30T15:24:28.020Z,4160
2018-09-30T15:25:37.643Z,4020
2018-09-30T15:26:46.718Z,3808
2018-09-30T15:27:56.305Z,3524
2018-09-30T15:29:06.239Z,3288
2018-09-30T15:30:16.146Z,3188
2018-09-30T15:31:26.092Z,3156
2018-09-30T15:32:35.983Z,3196
2018-09-30T15:33:45.884Z,3268
2018-09-30T15:34:55.506Z,3312
2018-09-30T15:36:05.403Z,3280
2018-09-30T15:37:15.297Z,3168
2018-09-30T15:38:24.922Z,3140
2018-09-30T15:39:34.821Z,3316
2018-09-30T15:40:44.981Z,3376
2018-09-30T15:41:54.873Z,3456
2018-09-30T15:43:05.531Z,3580
2018-09-30T15:44:15.431Z,3652
2018-09-30T15:45:25.057Z,3620
2018-09-30T15:46:35.237Z,3536
2018-09-30T15:47:45.198Z,3472
2018-09-30T15:48:54.875Z,3428
2018-09-30T15:50:05.048Z,3428
2018-09-30T15:51:15.225Z,3404
2018-09-30T15:52:25.395Z,3276
2018-09-30T15:53:34.751Z,3140
2018-09-30T15:54:44.644Z,3016
2018-09-30T15:55:54.280Z,2908
2018-09-30T15:57:04.449Z,2812
2018-09-30T15:58:14.355Z,2728
2018-09-30T15:59:24.532Z,2668